Data for 02/02/2007

Time Sea-Level Adjusted Pressure Absolute Pressure Temperature Relative Humidity Dew Point   
(mb) (inHg) (mb) (inHg) (C) (F) (%) (C) (F)
00:05 1017 30.03 846 24.98 -19.1 -2.3 60 -25.1 -13.2
00:10 1017 30.03 846 24.98 -19.2 -2.6 60 -25.2 -13.4
00:15 1017 30.03 846 24.98 -19.2 -2.5 60 -25.2 -13.4
00:20 1017 30.03 846 24.98 -19.1 -2.4 60 -25 -13.1
00:25 1016 30 846 24.98 -19.3 -2.7 61 -24.9 -12.8
00:30 1016 30 846 24.98 -19.3 -2.7 64 -24.4 -12
00:35 1016 30 846 24.98 -19.1 -2.3 62 -24.6 -12.3
00:40 1016 30 845 24.95 -19.6 -3.2 63 -25 -13
00:45 1016 30 845 24.95 -20.1 -4.1 66 -25 -13
00:50 1016 30 845 24.95 -19.8 -3.7 64 -24.9 -12.8
00:55 1016 30 845 24.95 -19.9 -3.8 63 -25.2 -13.4
01:00 1016 30 845 24.95 -20.2 -4.3 64 -25.3 -13.6
01:05 1016 30 845 24.95 -20.7 -5.2 65 -25.5 -14
01:10 1016 30 845 24.95 -21 -5.7 69 -25.2 -13.4
01:15 1016 30 845 24.95 -20.5 -4.9 67 -25.1 -13.1
01:20 1016 30 845 24.95 -19.8 -3.7 66 -24.6 -12.3
01:25 1016 30 845 24.95 -19.3 -2.7 65 -24.3 -11.7
01:30 1016 30 845 24.95 -19 -2.1 65 -24.1 -11.3
01:35 1016 30 845 24.95 -18.5 -1.3 61 -24.3 -11.7
01:40 1016 30 845 24.95 -18.4 -1.1 61 -24.3 -11.7
01:45 1016 30 845 24.95 -18 -0.4 61 -23.9 -11
01:50 1015 29.97 845 24.95 -18.1 -0.5 63 -23.6 -10.4
01:55 1015 29.97 845 24.95 -18.3 -1 64 -23.5 -10.4
02:00 1015 29.97 845 24.95 -18.1 -0.6 63 -23.5 -10.3
02:05 1015 29.97 845 24.95 -18 -0.3 66 -22.9 -9.2
02:10 1015 29.97 845 24.95 -17.6 0.3 59 -23.7 -10.7
02:15 1015 29.97 845 24.95 -17.4 0.7 61 -23.3 -9.9
02:20 1015 29.97 845 24.95 -17.3 0.9 63 -22.8 -9.1
02:25 1015 29.97 844 24.92 -17.4 0.7 64 -22.7 -8.9
02:30 1015 29.97 844 24.92 -17.5 0.5 64 -22.7 -8.9
02:35 1015 29.97 844 24.92 -17.3 0.9 62 -22.9 -9.2
02:40 1015 29.97 844 24.92 -17.2 1 61 -23 -9.4
02:45 1015 29.97 844 24.92 -17.1 1.2 62 -22.7 -8.9
02:50 1015 29.97 844 24.92 -16.8 1.8 62 -22.5 -8.4
02:55 1015 29.97 844 24.92 -16.6 2 61 -22.5 -8.5
03:00 1015 29.97 844 24.92 -16.5 2.3 60 -22.5 -8.6
03:05 1015 29.97 844 24.92 -16.7 1.9 59 -23 -9.4
03:10 1015 29.97 844 24.92 -16.8 1.8 62 -22.5 -8.5
03:15 1015 29.97 844 24.92 -16.5 2.3 62 -22.1 -7.8
03:20 1015 29.97 844 24.92 -16 3.2 61 -22 -7.6
03:25 1015 29.97 844 24.92 -15.6 4 59 -21.8 -7.3
03:30 1015 29.97 844 24.92 -15.3 4.4 60 -21.5 -6.7
03:35 1015 29.97 844 24.92 -15.2 4.7 60 -21.2 -6.2
03:40 1015 29.97 844 24.92 -15.3 4.4 62 -21.2 -6.1
03:45 1015 29.97 844 24.92 -15.4 4.2 62 -21.1 -6
03:50 1015 29.97 844 24.92 -15.5 4.1 63 -21.1 -5.9
03:55 1015 29.97 844 24.92 -15.5 4.1 62 -21.2 -6.1
04:00 1015 29.97 844 24.92 -15.6 4 63 -21.1 -6
04:05 1015 29.97 844 24.92 -15.8 3.7 63 -21.3 -6.3
04:10 1015 29.97 844 24.92 -15.9 3.5 64 -21.1 -6.1
04:15 1015 29.97 844 24.92 -16 3.2 65 -21.2 -6.2
04:20 1015 29.97 844 24.92 -16.1 3.1 66 -21 -5.9
04:25 1015 29.97 844 24.92 -16.1 3.1 66 -21 -5.7
04:30 1015 29.97 844 24.92 -16 3.3 67 -20.8 -5.4
04:35 1015 29.97 844 24.92 -16 3.3 67 -20.8 -5.4
04:40 1015 29.97 844 24.92 -16 3.2 68 -20.7 -5.2
04:45 1015 29.97 844 24.92 -16 3.2 67 -20.8 -5.4
04:50 1015 29.97 844 24.92 -15.9 3.3 67 -20.8 -5.4
04:55 1015 29.97 844 24.92 -15.9 3.5 68 -20.4 -4.8
05:00 1015 29.97 844 24.92 -15.8 3.5 67 -20.6 -5.1
05:05 1015 29.97 844 24.92 -16 3.2 67 -20.7 -5.3
05:10 1015 29.97 844 24.92 -15.9 3.5 67 -20.6 -5.1
05:15 1015 29.97 844 24.92 -15.7 3.7 67 -20.5 -4.9
05:20 1015 29.97 844 24.92 -15.6 4 66 -20.5 -4.9
05:25 1015 29.97 844 24.92 -15.6 3.9 66 -20.6 -5
05:30 1015 29.97 844 24.92 -15.9 3.4 68 -20.6 -5.1
05:35 1015 29.97 844 24.92 -16.1 3.1 69 -20.5 -5
05:40 1015 29.97 844 24.92 -15.9 3.5 68 -20.4 -4.7
05:45 1015 29.97 844 24.92 -15.8 3.7 65 -20.8 -5.5
05:50 1015 29.97 844 24.92 -15.7 3.8 67 -20.6 -5
05:55 1015 29.97 844 24.92 -15.7 3.8 66 -20.6 -5
06:00 1015 29.97 844 24.92 -15.3 4.5 66 -20.3 -4.6
06:05 1015 29.97 844 24.92 -15.2 4.7 71 -19.4 -2.9
06:10 1015 29.97 844 24.92 -15.1 4.9 68 -19.7 -3.4
06:15 1015 29.97 844 24.92 -14.8 5.3 64 -20.2 -4.3
06:20 1015 29.97 844 24.92 -14.7 5.5 64 -20 -4.1
06:25 1015 29.97 844 24.92 -14.7 5.6 65 -19.8 -3.7
06:30 1015 29.97 844 24.92 -14.7 5.6 63 -20.3 -4.5
06:35 1015 29.97 844 24.92 -14.7 5.6 62 -20.5 -4.9
06:40 1015 29.97 844 24.92 -14.4 6.1 62 -20.1 -4.2
06:45 1015 29.97 844 24.92 -14.1 6.6 61 -20.2 -4.4
06:50 1015 29.97 844 24.92 -14.3 6.3 61 -20.2 -4.3
06:55 1015 29.97 844 24.92 -14.1 6.6 60 -20.4 -4.7
07:00 1015 29.97 844 24.92 -13.9 7 59 -20.3 -4.5
07:05 1015 29.97 844 24.92 -13.6 7.5 60 -19.8 -3.7
07:10 1015 29.97 844 24.92 -13.7 7.4 60 -19.9 -3.8
07:15 1015 29.97 844 24.92 -13.8 7.1 62 -19.7 -3.4
07:20 1015 29.97 844 24.92 -13.5 7.8 59 -20 -3.9
07:25 1015 29.97 844 24.92 -13.6 7.5 60 -19.9 -3.7
07:30 1015 29.97 844 24.92 -13.7 7.4 60 -19.9 -3.8
07:35 1015 29.97 844 24.92 -13.5 7.8 61 -19.5 -3
07:40 1015 29.97 844 24.92 -13.5 7.8 64 -18.9 -2.1
07:45 1015 29.97 844 24.92 -13.5 7.6 62 -19.3 -2.8
07:50 1015 29.97 844 24.92 -14.4 6.1 65 -19.5 -3.2
07:55 1015 29.97 844 24.92 -14.4 6.1 66 -19.5 -3.1
08:00 1015 29.97 844 24.92 -14.3 6.4 65 -19.6 -3.2
08:05 1015 29.97 844 24.92 -13.5 7.7 61 -19.4 -3
08:10 1015 29.97 844 24.92 -13 8.6 61 -19.1 -2.4
08:15 1015 29.97 844 24.92 -12.9 8.8 62 -18.8 -1.8
08:20 1015 29.97 844 24.92 -13.2 8.3 64 -18.7 -1.6
08:25 1015 29.97 844 24.92 -13.5 7.8 64 -18.8 -1.9
08:30 1015 29.97 844 24.92 -13.2 8.3 65 -18.4 -1.1
08:35 1015 29.97 844 24.92 -12.8 9 61 -18.9 -1.9
08:40 1015 29.97 844 24.92 -12.4 9.6 59 -18.8 -1.8
08:45 1015 29.97 844 24.92 -12.2 10 61 -18.2 -0.8
08:50 1015 29.97 844 24.92 -11.9 10.6 60 -18.2 -0.7
08:55 1015 29.97 844 24.92 -11.7 11 58 -18.3 -1
09:00 1015 29.97 844 24.92 -12 10.5 60 -18.2 -0.7
09:05 1015 29.97 844 24.92 -11.9 10.5 60 -18.2 -0.7
09:10 1015 29.97 844 24.92 -11.8 10.8 60 -18 -0.4
09:15 1015 29.97 844 24.92 -11.5 11.3 59 -18.1 -0.5
09:20 1015 29.97 844 24.92 -11.4 11.5 60 -17.7 0.2
09:25 1015 29.97 844 24.92 -11.1 12.1 60 -17.4 0.7
09:30 1015 29.97 845 24.95 -11 12.2 61 -17.1 1.3
09:35 1015 29.97 844 24.92 -11.1 12.1 62 -17 1.4
09:40 1015 29.97 844 24.92 -11.2 11.8 63 -16.9 1.6
09:45 1015 29.97 844 24.92 -11.3 11.8 63 -17 1.3
09:50 1015 29.97 845 24.95 -10.9 12.4 62 -16.9 1.6
09:55 1015 29.97 845 24.95 -10.4 13.4 61 -16.5 2.4
10:00 1015 29.97 845 24.95 -10 14 57 -16.9 1.5
10:05 1015 29.97 845 24.95 -9.8 14.3 54 -17.5 0.4
10:10 1015 29.97 845 24.95 -9.2 15.5 50 -17.8 -0
10:15 1015 29.97 844 24.92 -9 15.9 52 -17.2 1
10:20 1015 29.97 844 24.92 -9.1 15.6 53 -17 1.4
10:25 1015 29.97 844 24.92 -8.6 16.6 51 -17 1.5
10:30 1015 29.97 844 24.92 -8.7 16.3 50 -17.4 0.7
10:35 1015 29.97 845 24.95 -8.7 16.3 51 -17.1 1.3
10:40 1015 29.97 844 24.92 -8.5 16.8 49 -17.3 0.9
10:45 1015 29.97 845 24.95 -8.3 17 51 -16.8 1.8
10:50 1015 29.97 845 24.95 -8.5 16.7 51 -16.9 1.5
10:55 1015 29.97 845 24.95 -8.8 16.2 51 -17.2 1.1
11:00 1015 29.97 845 24.95 -8.4 16.8 49 -17.4 0.7
11:05 1016 30 845 24.95 -8.6 16.4 49 -17.5 0.6
11:10 1016 30 845 24.95 -8.4 16.8 50 -17.1 1.3
11:15 1016 30 845 24.95 -7.6 18.3 46 -17.3 0.8
11:20 1016 30 845 24.95 -8 17.6 46 -17.6 0.3
11:25 1016 30 845 24.95 -8.4 16.9 48 -17.5 0.5
11:30 1016 30 845 24.95 -8.5 16.8 49 -17.3 0.8
11:35 1016 30 845 24.95 -8.4 16.9 47 -17.8 -0
11:40 1016 30 845 24.95 -8 17.5 49 -16.9 1.6
11:45 1016 30 845 24.95 -7.8 17.9 47 -17.4 0.7
11:50 1016 30 845 24.95 -7.8 17.9 48 -17 1.4
11:55 1016 30 845 24.95 -7.2 19 46 -17 1.3
12:00 1016 30 845 24.95 -7.5 18.6 47 -16.8 1.7
12:05 1016 30 845 24.95 -7.4 18.7 47 -16.9 1.6
12:10 1016 30 845 24.95 -7.5 18.5 50 -16.3 2.6
12:15 1016 30 845 24.95 -6.9 19.5 45 -17.1 1.3
12:20 1016 30 845 24.95 -7.3 18.9 48 -16.6 2.1
12:25 1016 30 845 24.95 -7.2 19 49 -16.2 2.9
12:30 1016 30 845 24.95 -6.9 19.6 46 -16.6 2
12:35 1015 29.97 845 24.95 -7 19.5 48 -16.2 2.9
12:40 1015 29.97 845 24.95 -6.5 20.2 47 -16 3.2
12:45 1015 29.97 845 24.95 -6.4 20.4 48 -15.8 3.5
12:50 1015 29.97 844 24.92 -6.1 21 44 -16.4 2.4
12:55 1015 29.97 844 24.92 -6.3 20.7 43 -17.1 1.3
13:00 1015 29.97 844 24.92 -6.5 20.4 44 -16.8 1.8
13:05 1015 29.97 844 24.92 -6.6 20.2 47 -16.1 3
13:10 1015 29.97 844 24.92 -5.9 21.3 46 -15.9 3.4
13:15 1015 29.97 844 24.92 -6.3 20.7 49 -15.3 4.5
13:20 1015 29.97 844 24.92 -5.5 22.1 44 -15.9 3.3
13:25 1015 29.97 844 24.92 -5.2 22.7 44 -15.6 4
13:30 1015 29.97 844 24.92 -6.7 19.9 48 -16 3.2
13:35 1015 29.97 844 24.92 -6.5 20.3 47 -16 3.3
13:40 1015 29.97 844 24.92 -6.5 20.4 46 -16.2 2.9
13:45 1015 29.97 844 24.92 -7 19.4 49 -16.1 2.9
13:50 1015 29.97 844 24.92 -6.6 20.1 47 -16.1 3
13:55 1015 29.97 844 24.92 -6.3 20.7 47 -15.9 3.4
14:00 1014 29.94 844 24.92 -6 21.2 46 -15.9 3.3
14:05 1014 29.94 844 24.92 -6.4 20.4 48 -15.7 3.8
14:10 1014 29.94 843 24.89 -6.5 20.4 50 -15.4 4.4
14:15 1014 29.94 843 24.89 -5.9 21.3 47 -15.5 4.1
14:20 1014 29.94 843 24.89 -5.9 21.3 47 -15.6 3.9
14:25 1014 29.94 843 24.89 -5.9 21.4 45 -16 3.3
14:30 1014 29.94 843 24.89 -6.2 20.8 49 -15.3 4.4
14:35 1014 29.94 843 24.89 -5.5 22 45 -15.6 4
14:40 1014 29.94 843 24.89 -5.1 22.9 45 -15.1 4.7
14:45 1014 29.94 843 24.89 -4.9 23.3 44 -15.4 4.2
14:50 1014 29.94 843 24.89 -5.3 22.5 46 -15.1 4.8
14:55 1014 29.94 844 24.92 -5.5 22 46 -15.4 4.3
15:00 1014 29.94 844 24.92 -6.2 20.8 48 -15.6 4
15:05 1014 29.94 844 24.92 -6.2 20.9 49 -15.2 4.6
15:10 1014 29.94 844 24.92 -5.9 21.4 49 -15.1 4.9
15:15 1014 29.94 844 24.92 -5.4 22.3 48 -14.8 5.3
15:20 1014 29.94 844 24.92 -5.5 22.2 48 -14.9 5.1
15:25 1014 29.94 844 24.92 -5.2 22.6 47 -14.8 5.4
15:30 1014 29.94 844 24.92 -5.1 22.9 48 -14.6 5.8
15:35 1014 29.94 844 24.92 -5.1 22.7 47 -14.7 5.5
15:40 1014 29.94 844 24.92 -5.1 22.8 47 -14.8 5.3
15:45 1014 29.94 844 24.92 -5.7 21.7 50 -14.7 5.6
15:50 1014 29.94 844 24.92 -5.9 21.3 50 -14.8 5.3
15:55 1014 29.94 844 24.92 -6.1 21 51 -14.7 5.6
16:00 1014 29.94 843 24.89 -5.9 21.4 52 -14.2 6.5
16:05 1014 29.94 843 24.89 -6.1 21.1 52 -14.3 6.2
16:10 1014 29.94 843 24.89 -6.4 20.4 56 -13.9 6.9
16:15 1014 29.94 843 24.89 -6.3 20.6 54 -14.2 6.5
16:20 1014 29.94 843 24.89 -6.3 20.7 55 -13.8 7.1
16:25 1014 29.94 843 24.89 -6.4 20.5 55 -13.9 6.9
16:30 1014 29.94 843 24.89 -6.5 20.3 58 -13.4 7.8
16:35 1014 29.94 843 24.89 -6.5 20.3 61 -12.9 8.9
16:40 1014 29.94 843 24.89 -6.6 20.1 62 -12.7 9.2
16:45 1014 29.94 843 24.89 -6.9 19.6 64 -12.6 9.3
16:50 1014 29.94 843 24.89 -6.9 19.7 65 -12.3 9.8
16:55 1014 29.94 843 24.89 -6.9 19.6 66 -12.1 10.1
17:00 1014 29.94 844 24.92 -7 19.3 69 -11.9 10.6
17:05 1014 29.94 844 24.92 -7.3 18.8 70 -11.9 10.6
17:10 1014 29.94 844 24.92 -7.5 18.4 71 -12 10.4
17:15 1014 29.94 844 24.92 -7.5 18.4 73 -11.7 11
17:20 1015 29.97 844 24.92 -7.6 18.4 75 -11.2 11.8
17:25 1015 29.97 844 24.92 -7.5 18.5 77 -11 12.3
17:30 1015 29.97 844 24.92 -7.7 18.2 78 -10.8 12.5
17:35 1014 29.94 844 24.92 -7.6 18.3 80 -10.6 13
17:40 1014 29.94 844 24.92 -7.5 18.4 80 -10.4 13.3
17:45 1014 29.94 844 24.92 -7.5 18.6 81 -10.2 13.6
17:50 1015 29.97 844 24.92 -7.7 18.1 83 -10.2 13.7
17:55 1015 29.97 844 24.92 -7.9 17.8 85 -10 14.1
18:00 1015 29.97 844 24.92 -7.8 17.9 86 -9.7 14.5
18:05 1014 29.94 844 24.92 -7.7 18.1 85 -9.8 14.4
18:10 1014 29.94 844 24.92 -7.7 18.1 86 -9.6 14.7
18:15 1014 29.94 844 24.92 -7.7 18.1 87 -9.5 14.8
18:20 1014 29.94 844 24.92 -7.9 17.8 88 -9.6 14.7
18:25 1014 29.94 844 24.92 -8.1 17.5 88 -9.8 14.4
18:30 1014 29.94 844 24.92 -8.3 17 88 -9.9 14.2
18:35 1014 29.94 844 24.92 -8.4 17 89 -9.8 14.3
18:40 1014 29.94 844 24.92 -8.1 17.4 90 -9.5 14.8
18:45 1014 29.94 844 24.92 -7.9 17.8 89 -9.4 15.1
18:50 1014 29.94 844 24.92 -7.8 18.1 89 -9.3 15.2
18:55 1014 29.94 844 24.92 -7.6 18.3 88 -9.3 15.3
19:00 1014 29.94 844 24.92 -7.5 18.6 87 -9.3 15.3
19:05 1014 29.94 844 24.92 -7.3 18.8 87 -9.1 15.5
19:10 1014 29.94 844 24.92 -7.1 19.2 86 -9.1 15.7
19:15 1014 29.94 844 24.92 -7 19.4 86 -9 15.8
19:20 1015 29.97 844 24.92 -7 19.3 85 -9.1 15.6
19:25 1015 29.97 844 24.92 -7.2 19 85 -9.3 15.2
19:30 1015 29.97 844 24.92 -7.4 18.6 86 -9.4 15
19:35 1015 29.97 844 24.92 -7.5 18.6 86 -9.4 15.1
19:40 1015 29.97 844 24.92 -7.5 18.5 86 -9.5 14.9
19:45 1015 29.97 844 24.92 -7.6 18.4 86 -9.4 15
19:50 1015 29.97 844 24.92 -7.6 18.4 86 -9.6 14.8
19:55 1015 29.97 844 24.92 -7.6 18.3 85 -9.7 14.6
20:00 1015 29.97 844 24.92 -7.7 18.2 86 -9.6 14.7
20:05 1015 29.97 844 24.92 -7.5 18.4 85 -9.7 14.6
20:10 1015 29.97 844 24.92 -7.7 18.2 85 -9.8 14.3
20:15 1015 29.97 844 24.92 -8.2 17.3 87 -10 14
20:20 1015 29.97 845 24.95 -8.3 17.1 88 -10 14
20:25 1015 29.97 844 24.92 -8.1 17.5 87 -9.8 14.3
20:30 1015 29.97 845 24.95 -7.8 18 86 -9.8 14.4
20:35 1015 29.97 845 24.95 -7.6 18.2 85 -9.8 14.4
20:40 1015 29.97 845 24.95 -7.7 18.2 85 -9.8 14.4
20:45 1015 29.97 844 24.92 -7.8 17.9 86 -9.8 14.4
20:50 1015 29.97 844 24.92 -7.8 18 85 -9.8 14.3
20:55 1015 29.97 844 24.92 -7.7 18.1 84 -10 14.1
21:00 1015 29.97 845 24.95 -7.9 17.7 85 -10 13.9
21:05 1015 29.97 844 24.92 -7.7 18.1 84 -10 14
21:10 1015 29.97 844 24.92 -7.8 17.9 85 -10 14.1
21:15 1015 29.97 844 24.92 -7.9 17.8 85 -10 14
21:20 1015 29.97 845 24.95 -7.7 18.1 86 -9.8 14.4
21:25 1015 29.97 845 24.95 -7.4 18.6 84 -9.7 14.5
21:30 1015 29.97 845 24.95 -7.3 19 82 -9.8 14.4
21:35 1015 29.97 845 24.95 -7.3 18.8 82 -9.8 14.3
21:40 1015 29.97 845 24.95 -7.2 19 82 -9.8 14.4
21:45 1015 29.97 845 24.95 -7.3 18.9 82 -9.8 14.4
21:50 1015 29.97 845 24.95 -7.2 19 83 -9.6 14.7
21:55 1016 30 845 24.95 -7 19.3 82 -9.6 14.7
22:00 1015 29.97 845 24.95 -7 19.4 81 -9.7 14.5
22:05 1015 29.97 845 24.95 -7.1 19.2 82 -9.7 14.5
22:10 1016 30 845 24.95 -7.2 19.1 83 -9.6 14.8
22:15 1016 30 845 24.95 -7.2 19 84 -9.4 15
22:20 1016 30 845 24.95 -7.2 19.1 84 -9.5 15
22:25 1016 30 845 24.95 -7.3 18.9 83 -9.7 14.5
22:30 1016 30 845 24.95 -7.4 18.7 82 -9.9 14.1
22:35 1016 30 845 24.95 -7.5 18.5 82 -10 13.9
22:40 1016 30 845 24.95 -7.5 18.5 83 -9.9 14.2
22:45 1016 30 845 24.95 -7.5 18.5 84 -9.8 14.4
22:50 1016 30 845 24.95 -7.6 18.4 84 -9.9 14.2
22:55 1016 30 845 24.95 -7.4 18.6 83 -9.9 14.2
23:00 1016 30 845 24.95 -7.5 18.5 85 -9.6 14.8
23:05 1016 30 845 24.95 -7.6 18.3 86 -9.6 14.7
23:10 1015 29.97 845 24.95 -7.8 18 87 -9.6 14.7
23:15 1015 29.97 844 24.92 -8 17.7 88 -9.7 14.6
23:20 1015 29.97 844 24.92 -8.1 17.4 89 -9.6 14.7
23:25 1015 29.97 844 24.92 -8.2 17.3 90 -9.6 14.8
23:30 1015 29.97 844 24.92 -8.3 17.1 90 -9.6 14.7
23:35 1015 29.97 844 24.92 -8.3 17.1 90 -9.6 14.7
23:40 1015 29.97 845 24.95 -8.4 16.9 91 -9.7 14.6
23:45 1015 29.97 844 24.92 -8.6 16.6 91 -9.7 14.5
23:50 1015 29.97 844 24.92 -8.5 16.7 91 -9.8 14.4
23:55 1015 29.97 844 24.92 -8.5 16.7 90 -9.8 14.4
24:00 1015 29.97 844 24.92 -8.4 17 90 -9.8 14.4